Time;durP1;ratioP1;P1;durP2;ratioP2;P2;SDS_P1;SDS_P2;PMS_P1;PMS_P2;Temp;Humidity;BMP_temperature;BMP_pressure;BME280_temperature;BME280_humidity;BME280_pressure;Samples;Min_cycle;Max_cycle;Signal;HPM_P1;HPM_P2
2022/10/09 00:04:24;;;;;;;14.18;10.63;;;18.50;80.40;;;;;;10826950;33;20035;-78
2022/10/09 00:10:27;;;;;;;16.73;11.75;;;18.50;80.30;;;;;;10826833;33;20047;-79
2022/10/09 00:16:29;;;;;;;12.73;10.93;;;18.50;80.40;;;;;;10827903;32;20016;-79
2022/10/09 00:22:32;;;;;;;14.98;11.65;;;18.50;80.60;;;;;;10830661;32;20075;-79
2022/10/09 00:28:34;;;;;;;15.48;13.30;;;18.40;80.80;;;;;;10817363;32;20336;-78
2022/10/09 00:34:35;;;;;;;13.10;9.85;;;18.40;80.90;;;;;;10826234;33;20055;-79
2022/10/09 00:40:55;;;;;;;15.15;9.63;;;18.30;80.90;;;;;;10753430;33;20372;-79
2022/10/09 00:46:58;;;;;;;17.17;14.02;;;18.30;80.90;;;;;;10752563;33;20029;-79
2022/10/09 00:53:02;;;;;;;14.80;12.82;;;18.30;81.30;;;;;;10764851;33;20020;-79
2022/10/09 00:59:08;;;;;;;18.98;16.85;;;18.30;81.40;;;;;;10752512;33;20048;-80
2022/10/09 01:05:11;;;;;;;19.92;14.80;;;18.20;81.60;;;;;;10753473;33;20063;-80
2022/10/09 01:11:54;;;;;;;18.23;12.73;;;18.20;81.90;;;;;;10806040;32;20027;-80
2022/10/09 01:18:04;;;;;;;16.77;11.60;;;18.30;81.90;;;;;;10756807;33;20058;-78
2022/10/09 01:24:34;;;;;;;21.40;13.82;;;18.30;81.80;;;;;;10755328;33;20060;-78
2022/10/09 01:30:37;;;;;;;17.92;13.65;;;18.30;81.70;;;;;;10755184;33;20028;-80
2022/10/09 01:36:41;;;;;;;24.08;15.35;;;18.30;81.90;;;;;;10755154;33;20051;-79
2022/10/09 01:42:45;;;;;;;22.70;15.95;;;18.30;82.20;;;;;;10756188;33;20028;-79
2022/10/09 01:49:33;;;;;;;19.35;14.57;;;18.30;82.40;;;;;;10755505;33;20033;-78
2022/10/09 01:55:41;;;;;;;23.83;18.35;;;18.30;82.70;;;;;;10833479;32;20470;-81
2022/10/09 02:01:44;;;;;;;21.37;14.57;;;18.30;82.80;;;;;;10822657;32;20055;-81
2022/10/09 02:07:47;;;;;;;19.65;14.82;;;18.30;82.90;;;;;;10835392;32;20024;-78
2022/10/09 02:13:51;;;;;;;17.95;13.07;;;18.30;82.90;;;;;;10835055;32;20439;-78
2022/10/09 02:20:08;;;;;;;16.48;13.40;;;18.30;82.80;;;;;;10821623;32;20039;-79
2022/10/09 02:26:34;;;;;;;22.58;14.60;;;18.30;82.80;;;;;;10830590;33;20043;-78
2022/10/09 02:32:36;;;;;;;18.92;13.98;;;18.30;82.90;;;;;;10757828;33;20064;-78
2022/10/09 02:38:38;;;;;;;19.83;14.35;;;18.30;82.80;;;;;;10754265;33;20036;-78
2022/10/09 02:44:41;;;;;;;16.25;14.25;;;18.30;82.70;;;;;;10753724;33;20156;-78
2022/10/09 02:50:43;;;;;;;16.15;13.77;;;18.30;82.70;;;;;;10757459;33;20020;-78
2022/10/09 02:56:45;;;;;;;14.60;11.12;;;18.30;82.60;;;;;;10757330;33;20438;-78
2022/10/09 03:02:48;;;;;;;15.52;12.55;;;18.20;82.60;;;;;;10756778;33;20144;-78
2022/10/09 03:08:51;;;;;;;17.33;15.07;;;18.20;82.80;;;;;;10808869;32;20046;-78
2022/10/09 03:14:53;;;;;;;19.35;14.80;;;18.20;82.80;;;;;;10832960;32;20148;-78
2022/10/09 03:20:56;;;;;;;14.48;11.93;;;18.10;82.80;;;;;;10828732;33;20094;-78
2022/10/09 03:26:58;;;;;;;12.35;11.02;;;18.10;82.80;;;;;;10829549;32;20028;-78
2022/10/09 03:33:00;;;;;;;17.37;11.82;;;18.00;82.70;;;;;;10831883;32;20031;-77
2022/10/09 03:39:02;;;;;;;13.10;9.20;;;18.00;82.80;;;;;;10832078;32;20020;-78
2022/10/09 03:45:05;;;;;;;13.80;10.30;;;17.90;83.00;;;;;;10831703;32;20435;-77
2022/10/09 03:51:07;;;;;;;15.50;11.43;;;17.90;83.00;;;;;;10832084;32;20344;-77
2022/10/09 03:57:09;;;;;;;15.82;11.55;;;17.90;82.90;;;;;;10831461;32;20050;-77
2022/10/09 04:03:11;;;;;;;14.82;11.93;;;17.90;82.80;;;;;;10831498;32;20036;-78
2022/10/09 04:09:13;;;;;;;14.00;10.88;;;17.80;82.70;;;;;;10827312;33;20055;-77
2022/10/09 04:15:15;;;;;;;13.00;9.13;;;17.80;82.70;;;;;;10437940;32;11888534;-77
2022/10/09 04:21:18;;;;;;;13.75;10.57;;;17.80;82.70;;;;;;10788387;33;20036;-77
2022/10/09 04:27:20;;;;;;;14.52;11.20;;;17.80;82.70;;;;;;10790301;33;20050;-78
2022/10/09 04:33:23;;;;;;;12.50;10.48;;;17.80;82.80;;;;;;10787414;33;20356;-78
2022/10/09 04:39:25;;;;;;;12.95;10.30;;;17.80;82.90;;;;;;10797686;33;20110;-77
2022/10/09 04:45:27;;;;;;;13.65;11.48;;;17.80;82.90;;;;;;10825577;32;20031;-77
2022/10/09 04:51:29;;;;;;;12.20;8.38;;;17.70;83.10;;;;;;10830178;32;20058;-77
2022/10/09 04:57:32;;;;;;;12.65;9.10;;;17.70;83.10;;;;;;10830108;32;20028;-77
2022/10/09 05:03:35;;;;;;;12.15;8.77;;;17.70;83.00;;;;;;10829763;33;20062;-77
2022/10/09 05:09:58;;;;;;;10.55;7.55;;;17.60;82.90;;;;;;10826879;33;20032;-77
2022/10/09 05:16:06;;;;;;;13.77;8.80;;;17.60;82.90;;;;;;10829525;33;20023;-77
2022/10/09 05:22:48;;;;;;;9.77;7.32;;;17.60;83.00;;;;;;10829581;33;20032;-77
2022/10/09 05:28:51;;;;;;;11.43;6.70;;;17.60;82.90;;;;;;10829450;33;20419;-77
2022/10/09 05:34:54;;;;;;;12.00;8.68;;;17.50;82.90;;;;;;10829363;33;20119;-77
2022/10/09 05:40:59;;;;;;;9.40;6.70;;;17.50;82.90;;;;;;10829339;33;20456;-77
2022/10/09 05:47:01;;;;;;;10.15;7.50;;;17.40;83.00;;;;;;10828539;32;20040;-76
2022/10/09 05:53:03;;;;;;;14.55;8.23;;;17.40;83.00;;;;;;10829085;33;20392;-77
2022/10/09 05:59:24;;;;;;;11.18;7.20;;;17.40;82.90;;;;;;10830077;32;20067;-77
2022/10/09 06:05:27;;;;;;;8.93;6.20;;;17.40;82.90;;;;;;10835858;32;20046;-77
2022/10/09 06:11:34;;;;;;;10.95;7.82;;;17.50;82.90;;;;;;10834639;32;20051;-77
2022/10/09 06:17:38;;;;;;;14.13;11.40;;;17.50;82.80;;;;;;10860210;27;20440;-77
2022/10/09 06:23:40;;;;;;;11.32;8.13;;;17.50;82.80;;;;;;10859432;32;20050;-77
2022/10/09 06:29:43;;;;;;;10.32;9.02;;;17.50;82.90;;;;;;10867407;32;20443;-77
2022/10/09 06:35:45;;;;;;;10.23;7.03;;;17.60;83.00;;;;;;10871877;32;20028;-77
2022/10/09 06:41:47;;;;;;;14.02;9.52;;;17.70;82.90;;;;;;10871507;32;20085;-77
2022/10/09 06:47:56;;;;;;;10.57;8.38;;;17.70;83.00;;;;;;10871477;32;20058;-78
2022/10/09 06:54:00;;;;;;;12.60;8.38;;;17.80;83.00;;;;;;10853221;32;20016;-78
2022/10/09 07:00:03;;;;;;;10.65;8.38;;;17.80;83.10;;;;;;10868552;32;20046;-79
2022/10/09 07:06:18;;;;;;;10.32;7.12;;;17.90;83.10;;;;;;10870313;32;20027;-79
2022/10/09 07:12:21;;;;;;;7.60;5.07;;;18.00;83.00;;;;;;10869922;32;20044;-79
2022/10/09 07:18:39;;;;;;;12.90;6.97;;;18.10;82.70;;;;;;10871593;32;20393;-80
2022/10/09 07:24:41;;;;;;;12.70;8.47;;;18.20;82.50;;;;;;10870705;32;20042;-81
2022/10/09 07:30:43;;;;;;;9.40;6.30;;;18.20;82.50;;;;;;10870961;32;20423;-80
2022/10/09 07:36:46;;;;;;;14.60;6.20;;;18.30;82.30;;;;;;10871706;32;20024;-79
2022/10/09 07:42:48;;;;;;;5.22;3.80;;;18.40;82.00;;;;;;10870969;32;20352;-80
2022/10/09 07:48:51;;;;;;;4.68;3.30;;;18.50;81.80;;;;;;10869867;32;20027;-81
2022/10/09 07:54:53;;;;;;;8.38;5.03;;;18.60;81.60;;;;;;10870113;32;20059;-80
2022/10/09 08:00:55;;;;;;;13.25;8.35;;;18.60;81.40;;;;;;10867092;32;20324;-79
2022/10/09 08:06:58;;;;;;;8.73;5.80;;;18.70;81.30;;;;;;10869474;32;20055;-79
2022/10/09 08:13:00;;;;;;;10.50;5.40;;;18.70;81.10;;;;;;10870479;32;20019;-78
2022/10/09 08:19:03;;;;;;;6.68;4.53;;;18.80;81.00;;;;;;10868223;32;20046;-80
2022/10/09 08:25:05;;;;;;;5.53;4.47;;;18.90;80.80;;;;;;10855717;32;20054;-80
2022/10/09 08:31:13;;;;;;;8.55;5.75;;;19.00;80.50;;;;;;10855496;32;20059;-79
2022/10/09 08:37:15;;;;;;;7.37;5.10;;;19.00;80.30;;;;;;10870466;32;20426;-80
2022/10/09 08:43:23;;;;;;;7.82;4.55;;;19.10;80.30;;;;;;10867818;32;20095;-79
2022/10/09 08:50:04;;;;;;;6.72;4.47;;;19.20;80.10;;;;;;10856576;32;20059;-79
2022/10/09 08:56:12;;;;;;;10.55;4.82;;;19.30;79.80;;;;;;10866889;32;20408;-77
2022/10/09 09:02:37;;;;;;;6.82;4.60;;;19.40;79.70;;;;;;10868161;32;20396;-81
2022/10/09 09:08:51;;;;;;;16.87;6.37;;;19.60;79.60;;;;;;10861579;32;20400;-79
2022/10/09 09:15:06;;;;;;;7.93;6.43;;;19.70;79.50;;;;;;10868364;32;20046;-78
2022/10/09 09:21:37;;;;;;;7.65;5.18;;;19.80;79.60;;;;;;10867670;32;20408;-80
2022/10/09 09:27:40;;;;;;;10.68;4.93;;;19.90;79.30;;;;;;10863135;32;20023;-79
2022/10/09 09:33:47;;;;;;;7.62;5.70;;;20.00;78.70;;;;;;10870556;32;20028;-75
2022/10/09 09:39:49;;;;;;;7.00;3.78;;;20.10;78.10;;;;;;10872353;32;20035;-73
2022/10/09 09:45:56;;;;;;;7.87;5.00;;;20.20;77.70;;;;;;10870027;32;20024;-73
2022/10/09 09:52:00;;;;;;;8.95;4.78;;;20.20;77.40;;;;;;10868736;32;20066;-75
2022/10/09 09:58:06;;;;;;;6.03;4.40;;;20.40;77.50;;;;;;10870689;32;20027;-73
2022/10/09 10:04:29;;;;;;;8.68;5.03;;;20.60;76.80;;;;;;10872369;32;20059;-74
2022/10/09 10:10:32;;;;;;;11.43;4.43;;;20.50;76.50;;;;;;10868384;32;20023;-73
2022/10/09 10:16:37;;;;;;;11.63;3.87;;;20.60;76.50;;;;;;10870629;32;20026;-75
2022/10/09 10:22:39;;;;;;;5.70;3.83;;;20.80;76.20;;;;;;10871314;32;20054;-74
2022/10/09 10:29:10;;;;;;;14.07;4.05;;;21.10;75.30;;;;;;10871946;32;20023;-74
2022/10/09 10:35:16;;;;;;;6.10;4.05;;;21.30;74.40;;;;;;10867360;32;20031;-74
2022/10/09 10:41:24;;;;;;;9.57;4.45;;;21.50;73.70;;;;;;10858438;32;20055;-73
2022/10/09 10:47:31;;;;;;;5.35;4.10;;;21.70;72.90;;;;;;10870340;32;20317;-74
2022/10/09 10:53:56;;;;;;;13.52;5.57;;;21.90;72.20;;;;;;10854697;32;20062;-74
2022/10/09 11:00:04;;;;;;;6.12;3.28;;;21.90;71.70;;;;;;10870948;32;20054;-74
2022/10/09 11:06:41;;;;;;;5.57;3.87;;;22.20;71.30;;;;;;10867683;32;20031;-73
2022/10/09 11:13:12;;;;;;;4.75;2.72;;;22.40;69.90;;;;;;10866514;32;20062;-74
2022/10/09 11:19:38;;;;;;;7.05;3.20;;;22.70;68.90;;;;;;10866083;32;20057;-75
2022/10/09 11:26:16;;;;;;;7.93;4.72;;;22.90;68.50;;;;;;10865866;32;20027;-75
2022/10/09 11:32:49;;;;;;;7.18;4.22;;;23.10;67.20;;;;;;10852510;32;20020;-73
2022/10/09 11:38:59;;;;;;;11.98;5.22;;;23.20;66.30;;;;;;10869480;32;20027;-74
2022/10/09 11:45:23;;;;;;;10.38;4.30;;;23.30;65.60;;;;;;10869312;32;20016;-76
2022/10/09 11:52:04;;;;;;;10.65;3.85;;;23.30;65.00;;;;;;10869033;32;20028;-74
2022/10/09 11:58:24;;;;;;;12.25;5.22;;;23.00;64.80;;;;;;10865437;32;20024;-75
2022/10/09 12:04:33;;;;;;;7.22;3.35;;;22.80;65.30;;;;;;10860444;32;20058;-74
2022/10/09 12:10:45;;;;;;;6.90;4.12;;;22.80;65.20;;;;;;10859949;32;20418;-75
2022/10/09 12:17:33;;;;;;;8.60;4.50;;;22.90;64.70;;;;;;10864091;32;20094;-75
2022/10/09 12:23:41;;;;;;;4.78;3.40;;;23.00;64.20;;;;;;10843209;32;20032;-75
2022/10/09 12:30:24;;;;;;;5.70;3.87;;;23.00;64.00;;;;;;10827294;32;20433;-74
2022/10/09 12:36:28;;;;;;;5.62;3.80;;;23.00;63.80;;;;;;10789500;33;20298;-74
2022/10/09 12:42:30;;;;;;;4.62;3.40;;;22.80;64.20;;;;;;10785037;33;20036;-74
2022/10/09 12:48:38;;;;;;;8.77;3.33;;;22.80;64.20;;;;;;10786423;33;20047;-76
2022/10/09 12:54:43;;;;;;;4.75;3.05;;;22.70;63.90;;;;;;10789842;33;20032;-79
2022/10/09 13:00:47;;;;;;;6.30;4.00;;;22.80;64.20;;;;;;10789977;33;20162;-79
2022/10/09 13:06:50;;;;;;;12.13;3.92;;;22.90;64.10;;;;;;10843938;32;20053;-80
2022/10/09 13:12:55;;;;;;;8.55;4.78;;;23.00;63.80;;;;;;10866960;32;20043;-80
2022/10/09 13:19:03;;;;;;;10.68;4.43;;;22.90;63.40;;;;;;10864593;32;20036;-80
2022/10/09 13:25:05;;;;;;;9.97;4.73;;;22.90;63.40;;;;;;10862762;32;20035;-80
2022/10/09 13:31:07;;;;;;;6.95;4.22;;;22.90;63.40;;;;;;10866610;32;20070;-80
2022/10/09 13:37:12;;;;;;;8.95;5.62;;;23.00;63.50;;;;;;10866476;32;20036;-76
2022/10/09 13:43:21;;;;;;;6.53;4.55;;;22.90;63.30;;;;;;10865239;32;20024;-80
2022/10/09 13:49:23;;;;;;;6.00;3.62;;;22.90;63.30;;;;;;10862222;32;20352;-81
2022/10/09 13:55:26;;;;;;;8.65;4.95;;;22.80;63.40;;;;;;10866403;32;20019;-80
2022/10/09 14:01:28;;;;;;;13.18;5.07;;;22.90;63.80;;;;;;10866119;32;20059;-80
2022/10/09 14:07:30;;;;;;;6.20;3.92;;;22.90;64.30;;;;;;10866120;32;20019;-80
2022/10/09 14:13:32;;;;;;;9.57;4.50;;;23.00;63.90;;;;;;10861882;27;20034;-80
2022/10/09 14:19:43;;;;;;;6.37;3.37;;;22.90;63.60;;;;;;10818786;32;20062;-80
2022/10/09 14:25:52;;;;;;;4.55;3.22;;;22.80;63.70;;;;;;10833616;32;20050;-80
2022/10/09 14:31:53;;;;;;;7.55;4.12;;;22.70;64.50;;;;;;10835659;32;20035;-80
2022/10/09 14:37:55;;;;;;;5.87;3.12;;;22.60;64.40;;;;;;10834815;32;20344;-81
2022/10/09 14:43:59;;;;;;;6.80;3.35;;;22.60;64.30;;;;;;10834525;32;20072;-80
2022/10/09 14:50:01;;;;;;;7.00;3.10;;;22.50;64.20;;;;;;10834330;32;20020;-79
2022/10/09 14:56:14;;;;;;;11.30;3.67;;;22.50;64.40;;;;;;10832176;32;20405;-80
2022/10/09 15:02:17;;;;;;;5.32;2.62;;;22.40;64.60;;;;;;10829445;33;20059;-79
2022/10/09 15:08:19;;;;;;;8.00;3.62;;;22.30;64.50;;;;;;10831334;32;20058;-79
2022/10/09 15:14:21;;;;;;;6.97;3.33;;;22.30;64.30;;;;;;10831393;32;20050;-80
2022/10/09 15:20:24;;;;;;;6.45;3.83;;;22.30;64.00;;;;;;10819095;32;20325;-80
2022/10/09 15:26:27;;;;;;;9.07;4.22;;;22.30;64.30;;;;;;10833006;32;20032;-80
2022/10/09 15:32:29;;;;;;;9.15;3.40;;;22.30;64.20;;;;;;10832044;32;20047;-80
2022/10/09 15:38:31;;;;;;;5.03;3.50;;;22.30;64.30;;;;;;10832397;32;20392;-79
2022/10/09 15:44:33;;;;;;;7.22;2.62;;;22.40;63.80;;;;;;10831896;32;20032;-80
2022/10/09 15:50:35;;;;;;;7.57;3.37;;;22.50;64.00;;;;;;10831516;32;20043;-80
2022/10/09 15:56:37;;;;;;;4.12;2.78;;;22.30;64.30;;;;;;10818535;32;20055;-79
2022/10/09 16:02:39;;;;;;;5.35;2.80;;;22.20;64.70;;;;;;10831653;32;20343;-80
2022/10/09 16:08:44;;;;;;;5.50;3.08;;;22.10;65.20;;;;;;10831401;32;20036;-80
2022/10/09 16:14:46;;;;;;;8.40;3.75;;;22.00;65.40;;;;;;10817984;32;20326;-80
2022/10/09 16:20:49;;;;;;;4.07;2.83;;;21.90;65.70;;;;;;10830916;32;20051;-79
2022/10/09 16:26:52;;;;;;;4.35;2.85;;;21.80;66.10;;;;;;10817587;32;20042;-80
2022/10/09 16:32:54;;;;;;;4.55;3.12;;;21.70;66.40;;;;;;10830659;32;20290;-80
2022/10/09 16:38:57;;;;;;;8.55;3.28;;;21.60;66.80;;;;;;10829781;32;20024;-79
2022/10/09 16:45:00;;;;;;;5.07;3.33;;;21.40;67.20;;;;;;10827801;32;20081;-79
2022/10/09 16:51:07;;;;;;;3.92;2.47;;;21.30;67.50;;;;;;10829675;32;20073;-80
2022/10/09 16:57:09;;;;;;;5.18;3.05;;;21.20;67.80;;;;;;10829854;32;20032;-80
2022/10/09 17:03:12;;;;;;;10.00;2.95;;;21.10;68.10;;;;;;10829613;32;20047;-79
2022/10/09 17:09:14;;;;;;;7.15;2.87;;;21.00;68.30;;;;;;10829736;33;20423;-80
2022/10/09 17:15:16;;;;;;;3.53;2.40;;;20.90;68.40;;;;;;10825192;33;20019;-79
2022/10/09 17:21:18;;;;;;;4.40;2.90;;;20.90;68.50;;;;;;10829385;33;20082;-79
2022/10/09 17:27:20;;;;;;;7.30;2.40;;;20.80;68.70;;;;;;10829320;33;20043;-79
2022/10/09 17:33:51;;;;;;;5.37;3.20;;;20.80;69.10;;;;;;10816600;33;20317;-80
2022/10/09 17:40:03;;;;;;;4.90;2.62;;;20.70;69.50;;;;;;10828998;33;20042;-79
2022/10/09 17:46:06;;;;;;;4.85;2.62;;;20.60;69.90;;;;;;10829068;33;20024;-79
2022/10/09 17:52:09;;;;;;;5.60;3.90;;;20.60;70.30;;;;;;10830884;32;20016;-79
2022/10/09 17:58:11;;;;;;;4.05;2.78;;;20.50;71.10;;;;;;10835815;32;20024;-79
2022/10/09 18:04:16;;;;;;;6.85;3.37;;;20.40;71.40;;;;;;10835705;32;20020;-79
2022/10/09 18:10:20;;;;;;;5.78;3.30;;;20.30;71.90;;;;;;10835579;32;20047;-80
2022/10/09 18:16:30;;;;;;;4.35;3.08;;;20.30;72.50;;;;;;10819919;32;20062;-80
2022/10/09 18:22:35;;;;;;;10.68;4.45;;;20.20;73.00;;;;;;10835097;32;20340;-80
2022/10/09 18:28:38;;;;;;;7.57;4.82;;;20.20;73.30;;;;;;10835016;32;20024;-80
2022/10/09 18:34:40;;;;;;;8.20;4.70;;;20.10;73.70;;;;;;10829919;33;20044;-80
2022/10/09 18:40:42;;;;;;;5.97;3.45;;;20.00;74.10;;;;;;10821438;32;20034;-80
2022/10/09 18:46:48;;;;;;;6.03;4.07;;;20.00;74.50;;;;;;10830308;33;20055;-80
2022/10/09 18:52:50;;;;;;;9.80;5.28;;;19.90;74.60;;;;;;10820958;32;20043;-80
2022/10/09 18:58:52;;;;;;;6.68;4.43;;;19.90;74.90;;;;;;10834089;32;20032;-81
2022/10/09 19:05:21;;;;;;;9.23;4.35;;;19.80;74.90;;;;;;10833493;32;20340;-81
2022/10/09 19:11:23;;;;;;;4.57;3.27;;;19.80;75.00;;;;;;10832930;32;20040;-80
2022/10/09 19:17:25;;;;;;;5.57;3.50;;;19.80;75.40;;;;;;10833053;32;20415;-82
2022/10/09 19:23:28;;;;;;;4.95;3.90;;;19.80;75.70;;;;;;10827937;33;20194;-80
2022/10/09 19:29:30;;;;;;;5.68;3.45;;;19.80;76.10;;;;;;10832696;32;20027;-82
2022/10/09 19:35:32;;;;;;;5.43;3.05;;;19.80;76.30;;;;;;10832571;32;20020;-74
2022/10/09 19:41:37;;;;;;;4.75;2.67;;;19.70;76.30;;;;;;10830661;32;20427;-73
2022/10/09 19:47:53;;;;;;;3.78;3.00;;;19.70;76.40;;;;;;10832031;32;20036;-74
2022/10/09 19:53:55;;;;;;;5.70;3.22;;;19.60;76.80;;;;;;10832016;32;20042;-74
2022/10/09 19:59:58;;;;;;;4.80;3.33;;;19.50;77.20;;;;;;10816338;32;20035;-74
2022/10/09 20:06:01;;;;;;;6.53;2.95;;;19.50;77.60;;;;;;10831602;32;20047;-75
2022/10/09 20:12:09;;;;;;;7.75;4.32;;;19.30;77.60;;;;;;10829097;32;20389;-74
2022/10/09 20:18:11;;;;;;;6.55;4.37;;;19.30;77.80;;;;;;10829081;32;20287;-73
2022/10/09 20:24:13;;;;;;;5.43;3.47;;;19.30;78.00;;;;;;10830814;32;20337;-74
2022/10/09 20:30:15;;;;;;;5.10;3.30;;;19.30;78.00;;;;;;10830534;32;20045;-73
2022/10/09 20:36:32;;;;;;;6.90;3.95;;;19.20;78.00;;;;;;10830565;32;20054;-80
2022/10/09 20:42:34;;;;;;;4.40;3.10;;;19.20;78.40;;;;;;10830651;32;20344;-81
2022/10/09 20:48:37;;;;;;;5.75;3.12;;;19.20;78.40;;;;;;10830158;32;20020;-80
2022/10/09 20:54:39;;;;;;;4.40;3.37;;;19.10;78.50;;;;;;10830167;32;20031;-81
2022/10/09 21:00:42;;;;;;;3.90;2.55;;;19.10;78.50;;;;;;10830058;32;20332;-80
2022/10/09 21:06:44;;;;;;;7.50;3.50;;;19.10;78.70;;;;;;10825706;33;20024;-80
2022/10/09 21:12:47;;;;;;;4.57;3.05;;;19.10;78.60;;;;;;10826003;32;20028;-80
2022/10/09 21:18:54;;;;;;;7.55;2.58;;;19.00;78.90;;;;;;10829753;33;20062;-80
2022/10/09 21:24:56;;;;;;;3.90;2.47;;;19.00;79.00;;;;;;10829586;32;20066;-80
2022/10/09 21:30:58;;;;;;;6.15;2.92;;;19.00;79.10;;;;;;10832363;33;20400;-80
2022/10/09 21:37:01;;;;;;;2.53;1.95;;;19.00;79.10;;;;;;10834636;32;20024;-81
2022/10/09 21:43:04;;;;;;;4.45;3.12;;;19.00;79.00;;;;;;10823630;32;20020;-80
2022/10/09 21:49:07;;;;;;;4.75;2.37;;;19.00;79.10;;;;;;10836581;32;20031;-80
2022/10/09 21:55:09;;;;;;;4.10;2.75;;;19.00;79.40;;;;;;10836161;32;20055;-80
2022/10/09 22:01:12;;;;;;;3.87;2.80;;;19.00;79.50;;;;;;10835750;32;20036;-79
2022/10/09 22:07:14;;;;;;;4.87;2.75;;;19.00;79.50;;;;;;10835557;32;20032;-80
2022/10/09 22:13:18;;;;;;;2.67;2.33;;;18.90;79.50;;;;;;10840102;27;20074;-80
2022/10/09 22:19:20;;;;;;;4.40;2.67;;;18.90;79.60;;;;;;10835171;32;20317;-80
2022/10/09 22:25:23;;;;;;;3.80;2.80;;;18.80;79.70;;;;;;10834985;32;20024;-80
2022/10/09 22:31:26;;;;;;;5.03;3.17;;;18.80;79.70;;;;;;10834810;32;20443;-81
2022/10/09 22:37:28;;;;;;;3.17;2.35;;;18.70;79.80;;;;;;10834167;32;20024;-80
2022/10/09 22:43:32;;;;;;;3.72;2.60;;;18.70;79.70;;;;;;10834433;32;20070;-80
2022/10/09 22:49:34;;;;;;;5.07;2.90;;;18.70;79.70;;;;;;10834312;32;20332;-80
2022/10/09 22:55:40;;;;;;;4.20;2.75;;;18.70;79.90;;;;;;10834243;32;20016;-80
2022/10/09 23:01:50;;;;;;;3.55;2.37;;;18.70;79.90;;;;;;10833713;32;20050;-80
2022/10/09 23:07:53;;;;;;;3.62;2.30;;;18.60;79.90;;;;;;10833695;32;20059;-80
2022/10/09 23:13:57;;;;;;;4.82;3.00;;;18.60;79.70;;;;;;10818848;32;20035;-80
2022/10/09 23:19:59;;;;;;;4.82;2.92;;;18.50;79.60;;;;;;10833227;32;20439;-80
2022/10/09 23:26:09;;;;;;;5.10;3.05;;;18.50;79.80;;;;;;10833040;32;20020;-79
2022/10/09 23:32:11;;;;;;;4.80;3.00;;;18.40;79.80;;;;;;10832781;32;20145;-80
2022/10/09 23:38:14;;;;;;;5.07;3.05;;;18.30;79.90;;;;;;10832730;32;20301;-80
2022/10/09 23:44:16;;;;;;;5.12;3.58;;;18.30;79.80;;;;;;10832360;32;20028;-80
2022/10/09 23:50:18;;;;;;;5.80;3.37;;;18.30;79.70;;;;;;10831747;32;20313;-80
2022/10/09 23:56:24;;;;;;;4.53;2.75;;;18.20;79.80;;;;;;10832220;32;20054;-80
